SBOSBO MEX / MMMX
Speedbird OnlineSpeedbird Online MEX / MMMX

Licenciado Benito Juarez International Airport
02:56 14.5°C

Location Mexico City, Mexico
Latitude: 19.4363
Longitude: -99.072098
Web Airport Website | Wikipedia
Altitude 2230 Meter / 7316 Feet
Distance 8,941 KM / 5,556 Miles
from London.
Time Zone UTC -5 hours (America/Mexico_City)
Codes IATA: MEX
ICAO: MMMX
Currency £1 equals MXN 22.72
Runways
RunwayLength (m)Surface
05L3952Asphalt
05R3900Asphalt
23L3900Asphalt
23R3952Asphalt
Radio
TypeDescriptionFrequency
APPMEXICO APP121.2
ARRMEXICO ARR129.6
ATISATIS127.65
CLDMEXICO CLNC DEL122.1
DEPMEXICO DEP120.5
GNDGND121
RDOMEXICO INFO126.9
TWRMEXICO TWR118.55
Live ATC
METAR MMMX 060640Z 00000KT 5SM BKN020 OVC080 13/12 A3038 NOSIG RMK 8/57/ HZY BINOVC LWR SC
TAF TAF COR MMMX 060511Z 0606/0712 05005KT 5SM HZ BKN020 OVC080 TX22/0621Z TN10/0612Z TEMPO 0606/0610 5SM -RA FM061000 00000KT 4SM HZ BKN015 BKN080 TEMPO 0610/0614 3SM BR -RA BKN010 FM061800 13010KT 6SM HZ SCT020 BKN100 BKN200 TEMPO 0622/0702 5SM TSRA BKN020CB
Weather As Of 06 Oct 2022 02:56
Description Overcast clouds
Wind 4 km/h from North (342°)
Cloud Cover 98%
Precipitation Rain: none, Snow: none
Sunrise 07:28
Sunset 19:20
Lounges American Airlines Admirals Club, International Departure Terminal 1
The Grand Lounge Elite, Terminal 1
Rotations During the last 90 days there were
64 flights from LHR
1 flights from KEF
65 flights to LHR


© 2017-2022 Speedbird Online